AirNav   GEt a FREE Bose Revolve Bluetooth Speaker
 
 886 users online  

M78 Malvern Municipal Airport
Malvern, Arkansas, USA

GOING TO MALVERN?


FAA INFORMATION EFFECTIVE 06 DECEMBER 2018

Location

FAA Identifier: M78
Lat/Long: 34-19-59.9370N / 092-45-41.3980W
34-19.998950N / 092-45.689967W
34.3333158 / -92.7614994
(estimated)
Elevation: 538 ft. / 164.0 m (surveyed)
Variation: 04E (1985)
From city: 3 miles SE of MALVERN, AR
Time zone: UTC -6 (UTC -5 during Daylight Saving Time)
Zip code: 72104

Airport Operations

Airport use: Open to the public
Activation date: 01/1964
Control tower: no
ARTCC: MEMPHIS CENTER
FSS: JONESBORO FLIGHT SERVICE STATION
NOTAMs facility: JBR (NOTAM-D service available)
Attendance: MON-FRI 0800-1700
Wind indicator: lighted
Segmented circle: yes
Lights: ACTVT MIRL RY 04/22 - CTAF.
Beacon: white-green (lighted land airport)
Operates sunset to sunrise.

Airport Communications

CTAF/UNICOM: 122.8
WX ASOS at HOT (19 nm NW): 119.925 (501-624-7633)
  • APCH/DEP SVC PRVDD BY MEMPHIS ARTCC ON FREQS 128.475/377.15 (HOT SPRINGS RCAG).

Nearby radio navigation aids

VOR radial/distance  VOR name  Freq  Var
HOTr114/18.5HOT SPRINGS VOR/DME110.0004E
LITr229/35.4LITTLE ROCK VORTAC113.9005E

Airport Services

Fuel available: 100LL
Parking: hangars and tiedowns
Airframe service: MAJOR
Powerplant service: MAJOR

Runway Information

Runway 4/22

Dimensions: 3188 x 60 ft. / 972 x 18 m
Surface: asphalt, in good condition
Weight bearing capacity: 
Single wheel: 10.0
Runway edge lights: medium intensity
RUNWAY 4  RUNWAY 22
Latitude: 34-19.791383N34-20.206667N
Longitude: 092-45.884100W092-45.495650W
Elevation: 538.0 ft.533.0 ft.
Gradient: 0.1%0.1%
Traffic pattern: leftleft
Runway heading: 034 magnetic, 038 true214 magnetic, 218 true
Displaced threshold: no376 ft.
Markings: basic, in fair conditionbasic, in fair condition
Touchdown point: yes, no lightsyes, no lights
Obstructions: none
+5 FT POST 150 FT RIGHT FM RY END.
41 ft. trees, 725 ft. from runway, 325 ft. right of centerline, 12:1 slope to clear
ROAD & 4 FT FENCE 28 FT FM THLD.

Airport Ownership and Management from official FAA records

Ownership: Publicly-owned
Owner: CITY OF MALVERN
305 LOCUST
MALVERN, AR 72104
Phone 501-332-3638
Manager: JOHN NEELY
115 AIRPORT ROAD
MALVERN, AR 72104
Phone 501-337-9939

Airport Operational Statistics

Aircraft based on the field: 23
Single engine airplanes: 20
Multi engine airplanes: 3
    
Aircraft operations: avg 33/day *
79% local general aviation
20% transient general aviation
1% military
* for 12-month period ending 31 July 2015

Instrument Procedures

NOTE: All procedures below are presented as PDF files. If you need a reader for these files, you should download the free Adobe Reader.

NOT FOR NAVIGATION. Please procure official charts for flight.
FAA instrument procedures published for use from 6 December 2018 at 0901Z to 3 January 2019 at 0900Z.

 
IAPs - Instrument Approach Procedures
RNAV (GPS) RWY 22   download (151KB)
NOTE: Special Take-Off Minimums/Departure Procedures apply   download (131KB)

Other nearby airports with instrument procedures:

KHOT - Memorial Field Airport (19 nm NW)
9M8 - Sheridan Municipal Airport (20 nm E)
KADF - Dexter B Florence Memorial Field Airport (21 nm SW)
KSUZ - Saline County Regional Airport (21 nm NE)
KLIT - Bill and Hillary Clinton National Airport/Adams Field (36 nm NE)
 
Loc | Ops | Rwys | IFR | FBO | Links
Com | Nav | Svcs | Stats | Notes


 
Area around M78 (Malvern Municipal Airport)
 
Road maps at: MapQuest Bing Google
 
Aerial photo
WARNING: Photo may not be current or correct
Aerial photo of M78 (Malvern Municipal Airport)
Photo courtesy of the Arkansas Department of Aeronautics
Taken in the Spring of 2007

Do you have a better or more recent aerial photo of Malvern Municipal Airport that you would like to share? If so, please send us your photo.

 
Sectional chart

 
Airport distance calculator
Flying to Malvern Municipal Airport? Find the distance to fly.

From to M78

Sunrise and sunset
Times for 15-Dec-2018
 Local
(UTC-6)
 Zulu
(UTC)
Morning civil twilight06:4312:43
Sunrise07:1113:11
Sunset17:0123:01
Evening civil twilight17:2923:29

Current date and time
Zulu (UTC)  15-Dec-2018 21:47:25
Local (UTC-6)  15-Dec-2018 15:47:25
 
METAR
KHOT 
19nm NW 
152136Z AUTO 31005KT 10SM SCT025 12/08 A3003 RMK AO2 T01170078 TSNO
KADF 
21nm SW 
152056Z AUTO 35008KT 10SM BKN022 OVC034 11/07 A3006 RMK AO2 SLP185 T01110072 53001 TSNO
KSUZ 
21nm NE 
152135Z AUTO 31004G11KT 10SM FEW016 OVC025 10/07 A3004 RMK A01
KLIT 
35nm NE 
152137Z 31009KT 10SM SCT020 BKN032 10/06 A3003 RMK AO2 T01000056
TAF
KHOT 
19nm NW 
151720Z 1518/1618 00000KT P6SM OVC018 FM152200 34003KT P6SM SKC FM160900 00000KT 6SM BR SKC FM161500 VRB03KT P6SM BKN250
KADF 
21nm SW 
151720Z 1518/1618 32007KT P6SM OVC022 FM152200 34003KT P6SM SKC FM160900 00000KT 6SM BR SKC FM161500 VRB03KT P6SM BKN250
NOTAMs
Click for the latest NOTAMs
NOTAMs are issued by the DoD/FAA and will open in a separate window not controlled by AirNav.

 

 
 

FBO, Fuel Providers, and Aircraft Ground Support

  
 Business Name 
 
 Contact 
 
 Services / Description 
 
Fuel Prices
 
Comments
  
N2 Aviation Works 501-337-9939
no information available

If you are affiliated with N2 Aviation Works and would like to show here your services, contact info, web link, logo, and more, click here
100LL
FS $4.80 
 Updated 04-Dec-2018
 
   write
FS=Full service
Update Fuel Prices
 

Would you like to see your business listed on this page?

 If your business provides an interesting product or service to pilots, flight crews, aircraft, or users of the Malvern Municipal Airport, you should consider listing it here.  To start the listing process, click on the button below
 
Add a business
 

Other Pages about Malvern Municipal Airport

Update a link
 
Copyright © AirNav, LLC. All rights reserved. Privacy Policy  Contact